Time;durP1;ratioP1;P1;durP2;ratioP2;P2;SDS_P1;SDS_P2;PMS_P1;PMS_P2;Temp;Humidity;BMP_temperature;BMP_pressure;BME280_temperature;BME280_humidity;BME280_pressure;Samples;Min_cycle;Max_cycle;Signal;HPM_P1;HPM_P2
2023/09/11 00:02:07;;;;;;;9.77;6.35;;;;;;;20.35;60.20;95682.22;5066861;28;20196;-82
2023/09/11 00:04:32;;;;;;;7.78;6.75;;;;;;;20.34;60.04;95673.50;5064803;28;20184;-83
2023/09/11 00:06:58;;;;;;;8.13;6.82;;;;;;;20.38;60.30;95671.25;5086750;28;20196;-82
2023/09/11 00:09:24;;;;;;;6.90;6.20;;;;;;;20.38;60.22;95671.25;5056150;28;20204;-82
2023/09/11 00:11:49;;;;;;;7.20;6.50;;;;;;;20.40;60.38;95665.75;5071173;28;20256;-83
2023/09/11 00:14:14;;;;;;;10.40;6.63;;;;;;;20.43;59.95;95668.84;5049407;28;20189;-83
2023/09/11 00:16:41;;;;;;;6.57;5.97;;;;;;;20.48;60.17;95660.31;5048764;28;20292;-82
2023/09/11 00:19:09;;;;;;;9.65;6.63;;;;;;;20.46;59.56;95659.69;5052370;28;20268;-83
2023/09/11 00:21:34;;;;;;;7.38;6.05;;;;;;;20.50;59.37;95659.09;5068296;28;20641;-82
2023/09/11 00:23:59;;;;;;;8.30;6.50;;;;;;;20.57;59.43;95653.78;5071153;28;20242;-84
2023/09/11 00:26:25;;;;;;;7.38;6.00;;;;;;;20.56;59.31;95650.34;5052719;28;20227;-80
2023/09/11 00:28:50;;;;;;;7.13;5.90;;;;;;;20.56;59.07;95649.53;5049622;28;20205;-81
2023/09/11 00:31:15;;;;;;;7.82;6.53;;;;;;;20.53;59.47;95639.41;5044088;28;20642;-82
2023/09/11 00:33:41;;;;;;;7.10;6.40;;;;;;;20.56;59.56;95644.25;5040935;28;20208;-82
2023/09/11 00:36:06;;;;;;;7.57;6.03;;;;;;;20.60;59.25;95642.84;5042693;28;20292;-82
2023/09/11 00:38:31;;;;;;;7.15;6.00;;;;;;;20.62;58.99;95641.59;5063143;28;20211;-82
2023/09/11 00:40:57;;;;;;;8.70;6.78;;;;;;;20.65;59.13;95638.53;5050387;28;20682;-81
2023/09/11 00:43:22;;;;;;;7.50;6.78;;;;;;;20.68;58.88;95633.88;5043948;28;20625;-81
2023/09/11 00:45:50;;;;;;;9.13;6.93;;;;;;;20.73;58.46;95632.22;5056917;28;20654;-82
2023/09/11 00:48:16;;;;;;;6.72;5.97;;;;;;;20.76;58.38;95626.56;5042440;28;20196;-82
2023/09/11 00:50:44;;;;;;;9.52;6.88;;;;;;;20.77;58.56;95628.16;5063520;28;20246;-81
2023/09/11 00:53:09;;;;;;;7.22;6.07;;;;;;;20.82;58.45;95619.59;5067089;28;20216;-81
2023/09/11 00:55:34;;;;;;;7.32;6.50;;;;;;;20.89;57.91;95618.56;5053702;28;20184;-80
2023/09/11 00:58:00;;;;;;;9.05;6.95;;;;;;;20.89;58.02;95620.41;5074462;28;20229;-80
2023/09/11 01:00:25;;;;;;;9.07;6.32;;;;;;;20.87;58.04;95623.25;5072438;28;20176;-81
2023/09/11 01:02:50;;;;;;;9.80;6.50;;;;;;;20.89;57.84;95615.13;5068149;28;20196;-81
2023/09/11 01:05:16;;;;;;;7.32;6.38;;;;;;;20.87;58.00;95617.97;5047150;28;20242;-81
2023/09/11 01:07:41;;;;;;;11.18;6.88;;;;;;;20.77;58.59;95617.59;5042874;28;20303;-83
2023/09/11 01:10:07;;;;;;;7.57;6.70;;;;;;;20.77;58.74;95607.06;5039970;28;20192;-83
2023/09/11 01:12:37;;;;;;;8.00;6.43;;;;;;;20.82;58.42;95609.06;5042475;28;20229;-83
2023/09/11 01:15:07;;;;;;;6.57;5.90;;;;;;;20.83;58.80;95605.38;5062895;28;20649;-82
2023/09/11 01:17:45;;;;;;;7.68;6.88;;;;;;;20.74;58.90;95602.19;5050666;28;20189;-82
2023/09/11 01:20:33;;;;;;;7.55;6.80;;;;;;;20.74;58.52;95604.81;5071230;28;20184;-82
2023/09/11 01:23:16;;;;;;;7.07;6.38;;;;;;;20.69;58.79;95602.00;5056419;28;20728;-83
2023/09/11 01:25:57;;;;;;;12.05;6.45;;;;;;;20.70;58.66;95602.81;5070188;28;20710;-82
2023/09/11 01:28:44;;;;;;;9.63;6.60;;;;;;;20.65;59.07;95608.72;5072511;28;20225;-82
2023/09/11 01:31:09;;;;;;;10.15;6.38;;;;;;;20.56;59.51;95594.13;5085618;28;20276;-82
2023/09/11 01:33:35;;;;;;;8.75;6.57;;;;;;;20.57;59.24;95601.81;5039821;28;20212;-82
2023/09/11 01:36:00;;;;;;;7.43;6.35;;;;;;;20.49;60.00;95603.88;5051734;28;20196;-82
2023/09/11 01:38:26;;;;;;;8.40;6.70;;;;;;;20.54;59.38;95599.63;5084953;28;20575;-82
2023/09/11 01:40:52;;;;;;;8.27;6.38;;;;;;;20.46;59.54;95596.41;5047066;28;20192;-82
2023/09/11 01:43:19;;;;;;;7.82;6.65;;;;;;;20.52;59.80;95595.56;5042918;28;20301;-82
2023/09/11 01:45:45;;;;;;;9.82;6.60;;;;;;;20.47;59.48;95601.47;5055701;28;20189;-81
2023/09/11 01:48:11;;;;;;;9.68;6.70;;;;;;;20.49;59.61;95598.59;5054642;28;20207;-82
2023/09/11 01:50:38;;;;;;;8.07;6.40;;;;;;;20.50;59.48;95600.25;5068213;28;20559;-82
2023/09/11 01:53:06;;;;;;;9.05;7.43;;;;;;;20.52;59.43;95601.66;5045870;28;20205;-82
2023/09/11 01:55:33;;;;;;;8.88;7.68;;;;;;;20.59;59.60;95594.53;5043084;28;20189;-83
2023/09/11 01:57:58;;;;;;;7.20;6.47;;;;;;;20.64;59.15;95597.34;5056201;28;20196;-82
2023/09/11 02:00:23;;;;;;;10.60;7.30;;;;;;;20.59;59.68;95602.44;5054860;28;20192;-83
2023/09/11 02:02:55;;;;;;;7.38;6.68;;;;;;;20.69;59.10;95606.47;5066567;28;20732;-83
2023/09/11 02:05:20;;;;;;;8.82;7.15;;;;;;;20.71;59.12;95601.78;5046701;28;20192;-82
2023/09/11 02:07:45;;;;;;;8.77;6.50;;;;;;;20.75;59.18;95602.97;5058924;28;20208;-82
2023/09/11 02:10:11;;;;;;;7.90;6.88;;;;;;;20.70;59.25;95605.47;5038897;28;20184;-82
2023/09/11 02:12:36;;;;;;;9.80;7.18;;;;;;;20.64;59.51;95602.63;5057161;28;20193;-81
2023/09/11 02:15:01;;;;;;;9.82;7.10;;;;;;;20.73;59.23;95599.75;5079818;28;20188;-81
2023/09/11 02:17:30;;;;;;;10.73;6.63;;;;;;;20.73;59.79;95600.56;5083180;28;20533;-81
2023/09/11 02:19:56;;;;;;;13.57;7.53;;;;;;;20.69;59.51;95598.56;5053251;28;20192;-82
2023/09/11 02:22:21;;;;;;;11.32;7.15;;;;;;;20.68;59.69;95596.94;5072328;28;20243;-82
2023/09/11 02:24:47;;;;;;;7.35;6.55;;;;;;;20.72;59.62;95603.41;5053685;28;20192;-82
2023/09/11 02:27:12;;;;;;;8.38;7.43;;;;;;;20.68;59.71;95592.47;5049259;28;20187;-82
2023/09/11 02:29:37;;;;;;;9.93;6.88;;;;;;;20.72;59.93;95598.13;5047355;28;20208;-82
2023/09/11 02:32:03;;;;;;;7.72;6.97;;;;;;;20.94;58.78;95602.09;5052010;28;20700;-82
2023/09/11 02:34:28;;;;;;;9.68;7.60;;;;;;;21.05;58.47;95604.06;5056778;28;20290;-82
2023/09/11 02:36:54;;;;;;;9.77;7.20;;;;;;;21.08;58.68;95602.84;5053269;28;20555;-82
2023/09/11 02:39:19;;;;;;;7.68;6.85;;;;;;;21.07;58.53;95598.56;5048717;28;20205;-82
2023/09/11 02:41:44;;;;;;;8.43;6.65;;;;;;;21.14;58.51;95602.81;5062214;28;20285;-82
2023/09/11 02:44:10;;;;;;;9.15;7.47;;;;;;;21.11;58.59;95597.13;5052871;28;20184;-82
2023/09/11 02:46:35;;;;;;;9.82;7.50;;;;;;;21.12;58.64;95607.50;5055266;28;20191;-81
2023/09/11 02:49:00;;;;;;;8.40;7.05;;;;;;;21.09;58.88;95607.91;5052787;28;20807;-82
2023/09/11 02:51:28;;;;;;;9.02;6.55;;;;;;;21.04;59.15;95602.47;5060625;28;20180;-82
2023/09/11 02:53:53;;;;;;;8.07;6.80;;;;;;;21.03;59.37;95598.19;5079379;28;20235;-82
2023/09/11 02:56:19;;;;;;;9.30;7.13;;;;;;;21.06;59.39;95603.06;5055549;28;20193;-82
2023/09/11 02:58:44;;;;;;;7.97;7.15;;;;;;;21.02;59.75;95593.09;5056181;28;20189;-82
2023/09/11 03:01:09;;;;;;;8.13;7.43;;;;;;;20.93;59.81;95588.06;5041964;28;20185;-82
2023/09/11 03:03:34;;;;;;;8.35;7.18;;;;;;;20.87;60.33;95590.75;5046918;28;20216;-82
2023/09/11 03:06:01;;;;;;;8.20;7.40;;;;;;;20.91;60.00;95587.47;5049872;28;20203;-82
2023/09/11 03:08:29;;;;;;;8.57;7.32;;;;;;;20.77;60.67;95585.94;5054048;28;20201;-82
2023/09/11 03:11:02;;;;;;;13.10;7.50;;;;;;;20.88;60.19;95577.34;5056724;28;20204;-82
2023/09/11 03:13:35;;;;;;;10.20;7.45;;;;;;;20.77;60.70;95579.84;5087026;28;20200;-82
2023/09/11 03:16:13;;;;;;;8.18;6.95;;;;;;;20.75;60.92;95577.41;5046284;28;20191;-82
2023/09/11 03:18:39;;;;;;;9.30;7.28;;;;;;;20.67;61.06;95580.28;5055034;28;20192;-82
2023/09/11 03:21:11;;;;;;;7.80;7.05;;;;;;;20.63;61.20;95579.09;5055365;28;20200;-82
2023/09/11 03:23:36;;;;;;;10.27;7.53;;;;;;;20.47;62.06;95585.63;5055336;28;20262;-82
2023/09/11 03:26:02;;;;;;;8.90;7.13;;;;;;;20.50;61.97;95587.06;5068995;28;20204;-82
2023/09/11 03:28:32;;;;;;;10.85;8.68;;;;;;;20.41;62.55;95581.19;5055733;28;20236;-82
2023/09/11 03:31:03;;;;;;;9.85;7.55;;;;;;;20.42;62.62;95582.00;5060551;28;20188;-82
2023/09/11 03:33:29;;;;;;;11.85;7.30;;;;;;;20.35;63.12;95576.72;5056233;28;20208;-82
2023/09/11 03:35:59;;;;;;;11.27;7.70;;;;;;;20.47;62.52;95572.44;5071678;28;20196;-82
2023/09/11 03:38:25;;;;;;;13.95;8.40;;;;;;;20.43;62.68;95580.97;5068585;28;20277;-82
2023/09/11 03:40:50;;;;;;;8.35;7.38;;;;;;;20.36;62.46;95573.88;5046859;28;20267;-82
2023/09/11 03:43:15;;;;;;;9.50;8.00;;;;;;;20.35;62.60;95574.91;5052877;28;20239;-82
2023/09/11 03:45:41;;;;;;;10.63;8.13;;;;;;;20.27;62.92;95574.31;5055210;28;20203;-82
2023/09/11 03:48:06;;;;;;;9.63;8.02;;;;;;;20.11;63.51;95580.03;5055737;28;20283;-82
2023/09/11 03:50:31;;;;;;;10.85;7.68;;;;;;;20.13;63.52;95577.97;5052926;28;20241;-81
2023/09/11 03:52:57;;;;;;;11.65;7.88;;;;;;;20.07;63.64;95580.44;5046437;28;20212;-82
2023/09/11 03:55:22;;;;;;;11.18;7.53;;;;;;;20.02;63.52;95576.78;5051831;28;20180;-82
2023/09/11 03:57:47;;;;;;;10.07;7.97;;;;;;;19.96;63.94;95581.03;5072345;28;20642;-82
2023/09/11 04:00:13;;;;;;;7.90;7.10;;;;;;;19.91;64.29;95572.16;5055344;28;20203;-81
2023/09/11 04:02:39;;;;;;;9.18;8.02;;;;;;;19.81;64.72;95572.56;5069322;28;20227;-82
2023/09/11 04:05:05;;;;;;;10.88;7.50;;;;;;;19.74;64.89;95575.19;5067120;28;20705;-82
2023/09/11 04:07:32;;;;;;;11.63;7.30;;;;;;;19.68;64.84;95569.94;5062927;28;20650;-82
2023/09/11 04:09:57;;;;;;;8.30;7.50;;;;;;;19.64;65.25;95574.00;5059033;28;20231;-82
2023/09/11 04:12:22;;;;;;;8.82;7.50;;;;;;;19.59;65.52;95571.16;5042629;28;20205;-81
2023/09/11 04:14:48;;;;;;;9.27;7.68;;;;;;;19.56;65.51;95564.47;5063748;28;20244;-82
2023/09/11 04:17:13;;;;;;;8.23;7.43;;;;;;;19.53;65.83;95568.28;5051582;28;20574;-82
2023/09/11 04:19:39;;;;;;;8.65;7.72;;;;;;;19.56;65.44;95566.25;5055306;28;20184;-81
2023/09/11 04:22:07;;;;;;;9.18;8.18;;;;;;;19.55;65.54;95575.19;5057706;28;20207;-82
2023/09/11 04:24:33;;;;;;;14.00;8.30;;;;;;;19.50;65.28;95567.88;5073955;28;20188;-82
2023/09/11 04:26:58;;;;;;;10.48;7.18;;;;;;;19.57;65.30;95565.28;5053171;28;20177;-83
2023/09/11 04:29:24;;;;;;;7.90;7.10;;;;;;;19.61;65.40;95566.47;5065702;28;20204;-83
2023/09/11 04:31:50;;;;;;;8.48;7.55;;;;;;;19.65;65.01;95576.44;5043786;28;20241;-83
2023/09/11 04:34:18;;;;;;;10.30;7.35;;;;;;;19.62;65.15;95560.22;5039883;28;20197;-82
2023/09/11 04:36:43;;;;;;;8.23;7.43;;;;;;;19.67;64.75;95565.69;5059018;28;20187;-83
2023/09/11 04:39:11;;;;;;;8.35;7.00;;;;;;;19.68;64.88;95565.47;5069332;28;20181;-83
2023/09/11 04:41:37;;;;;;;9.68;7.40;;;;;;;19.69;65.12;95561.00;5066229;28;20211;-83
2023/09/11 04:44:05;;;;;;;9.93;6.95;;;;;;;19.68;64.85;95564.66;5055113;28;20216;-83
2023/09/11 04:46:33;;;;;;;8.88;7.97;;;;;;;19.65;64.82;95565.09;5093599;28;20241;-83
2023/09/11 04:49:04;;;;;;;7.90;7.20;;;;;;;19.59;64.87;95571.97;5055613;28;20302;-82
2023/09/11 04:51:37;;;;;;;9.95;7.85;;;;;;;19.57;65.10;95567.91;5065773;28;20713;-82
2023/09/11 04:54:08;;;;;;;8.73;6.70;;;;;;;19.53;64.89;95567.50;5057542;28;20236;-83
2023/09/11 04:56:44;;;;;;;8.80;7.10;;;;;;;19.53;65.18;95575.41;5060788;28;20185;-82
2023/09/11 04:59:13;;;;;;;10.38;7.72;;;;;;;19.54;64.89;95577.00;5058348;28;20288;-82
2023/09/11 05:01:44;;;;;;;9.07;7.43;;;;;;;19.57;65.37;95583.72;5043831;28;20185;-83
2023/09/11 05:04:09;;;;;;;8.88;7.70;;;;;;;19.57;65.16;95581.09;5065427;28;20195;-81
2023/09/11 05:06:37;;;;;;;8.32;7.53;;;;;;;19.58;64.96;95580.06;5086678;28;20224;-82
2023/09/11 05:09:04;;;;;;;9.93;7.00;;;;;;;19.60;64.92;95583.31;5053105;28;20212;-83
2023/09/11 05:11:30;;;;;;;8.68;6.50;;;;;;;19.68;64.69;95580.47;5056325;28;20263;-82
2023/09/11 05:13:55;;;;;;;9.23;6.75;;;;;;;19.70;64.32;95575.81;5060583;28;20296;-82
2023/09/11 05:16:21;;;;;;;8.85;7.30;;;;;;;19.74;64.70;95582.31;5064988;28;20181;-82
2023/09/11 05:18:47;;;;;;;9.45;7.47;;;;;;;19.78;64.50;95570.31;5051889;28;20222;-82
2023/09/11 05:21:13;;;;;;;10.10;8.10;;;;;;;19.84;64.24;95580.06;5054719;28;20196;-82
2023/09/11 05:23:38;;;;;;;10.65;7.68;;;;;;;19.86;64.08;95577.22;5056985;28;20227;-82
2023/09/11 05:26:07;;;;;;;9.40;8.40;;;;;;;19.91;64.17;95582.69;5056990;28;20196;-82
2023/09/11 05:28:32;;;;;;;9.82;7.65;;;;;;;19.94;64.15;95585.72;5065210;28;20208;-81
2023/09/11 05:30:57;;;;;;;10.38;7.63;;;;;;;20.00;63.60;95584.09;5044308;28;20276;-82
2023/09/11 05:33:23;;;;;;;8.45;7.57;;;;;;;20.04;63.79;95587.94;5039867;28;20202;-82
2023/09/11 05:35:48;;;;;;;8.40;7.43;;;;;;;20.07;63.60;95583.09;5059452;28;20184;-81
2023/09/11 05:38:13;;;;;;;7.82;7.03;;;;;;;20.16;63.39;95588.94;5052816;28;20218;-82
2023/09/11 05:40:39;;;;;;;8.57;7.25;;;;;;;20.20;63.53;95584.88;5065312;28;20538;-78
2023/09/11 05:43:04;;;;;;;11.60;7.97;;;;;;;20.32;63.12;95579.78;5060948;28;20205;-80
2023/09/11 05:45:29;;;;;;;9.52;7.43;;;;;;;20.38;63.39;95592.13;5072662;28;20556;-79
2023/09/11 05:47:55;;;;;;;8.70;7.55;;;;;;;20.43;62.90;95592.34;5090949;28;20303;-80
2023/09/11 05:50:20;;;;;;;8.88;6.82;;;;;;;20.46;62.37;95594.56;5068324;28;20208;-80
2023/09/11 05:52:45;;;;;;;7.97;7.18;;;;;;;20.45;62.84;95590.31;5063646;28;20730;-79
2023/09/11 05:55:11;;;;;;;9.98;7.80;;;;;;;20.51;62.83;95597.41;5044010;28;20613;-79
2023/09/11 05:57:36;;;;;;;12.55;7.43;;;;;;;20.59;62.87;95593.72;5039734;28;20192;-79
2023/09/11 06:00:08;;;;;;;9.40;7.70;;;;;;;20.68;63.02;95589.03;5056535;28;20239;-80
2023/09/11 06:02:34;;;;;;;8.73;7.57;;;;;;;20.79;62.50;95597.09;5064078;28;20208;-79
2023/09/11 06:04:59;;;;;;;7.97;7.18;;;;;;;20.90;62.17;95595.63;5065931;28;20181;-80
2023/09/11 06:07:24;;;;;;;9.35;7.40;;;;;;;20.97;62.23;95591.13;5068693;28;20211;-81
2023/09/11 06:09:50;;;;;;;10.77;7.55;;;;;;;21.11;62.21;95590.00;5073196;28;20194;-80
2023/09/11 06:12:15;;;;;;;10.40;8.10;;;;;;;21.24;61.54;95604.19;5073304;28;20200;-83
2023/09/11 06:14:40;;;;;;;9.48;6.32;;;;;;;21.33;61.49;95605.56;5053184;28;20538;-83
2023/09/11 06:17:06;;;;;;;8.48;7.57;;;;;;;21.42;61.43;95605.09;5048881;28;20193;-83
2023/09/11 06:19:31;;;;;;;8.20;7.35;;;;;;;21.53;60.95;95606.22;5043483;28;20220;-83
2023/09/11 06:21:56;;;;;;;12.20;7.63;;;;;;;21.63;60.80;95595.19;5040043;28;20192;-82
2023/09/11 06:24:22;;;;;;;9.50;6.97;;;;;;;21.72;60.35;95601.81;5039647;28;20196;-83
2023/09/11 06:27:01;;;;;;;9.43;7.05;;;;;;;21.92;60.22;95599.84;5048827;28;20822;-82
2023/09/11 06:29:26;;;;;;;8.38;7.38;;;;;;;22.02;59.92;95605.44;5050756;28;20228;-82
2023/09/11 06:31:52;;;;;;;9.85;7.40;;;;;;;22.07;59.66;95615.38;5054265;28;20189;-83
2023/09/11 06:34:17;;;;;;;8.13;7.32;;;;;;;22.12;59.63;95609.47;5058492;28;20657;-82
2023/09/11 06:36:42;;;;;;;8.75;6.82;;;;;;;22.13;59.57;95600.50;5055138;28;20536;-83
2023/09/11 06:39:08;;;;;;;8.07;7.28;;;;;;;22.27;59.53;95597.50;5052362;28;20180;-83
2023/09/11 06:41:33;;;;;;;9.27;7.80;;;;;;;22.39;59.46;95604.72;5045507;28;20652;-83
2023/09/11 06:43:58;;;;;;;7.85;7.00;;;;;;;22.48;59.61;95598.91;5051538;28;20204;-83
2023/09/11 06:46:24;;;;;;;7.72;7.03;;;;;;;22.55;59.53;95598.84;5060243;28;20441;-83
2023/09/11 06:48:49;;;;;;;8.05;6.70;;;;;;;22.66;59.17;95607.88;5054974;28;20208;-83
2023/09/11 06:51:14;;;;;;;9.05;7.40;;;;;;;22.73;58.86;95598.81;5056818;28;20606;-83
2023/09/11 06:53:40;;;;;;;10.00;8.25;;;;;;;22.81;58.49;95593.25;5064520;28;20207;-82
2023/09/11 06:56:07;;;;;;;9.68;7.32;;;;;;;22.87;58.76;95595.00;5049119;28;20215;-83
2023/09/11 06:58:33;;;;;;;8.02;7.10;;;;;;;22.96;58.45;95600.00;5059745;28;20226;-83
2023/09/11 07:00:58;;;;;;;8.98;7.10;;;;;;;22.99;58.38;95594.28;5044605;28;20180;-84
2023/09/11 07:03:23;;;;;;;8.05;7.25;;;;;;;23.12;57.78;95604.69;5051607;28;20223;-83
2023/09/11 07:05:51;;;;;;;9.60;7.90;;;;;;;23.24;57.32;95591.50;5064531;28;20267;-83
2023/09/11 07:08:16;;;;;;;9.05;7.25;;;;;;;23.39;57.33;95600.63;5055033;28;20228;-84
2023/09/11 07:10:47;;;;;;;9.93;6.95;;;;;;;23.52;56.80;95591.69;5055155;28;20271;-82
2023/09/11 07:13:13;;;;;;;7.82;6.90;;;;;;;23.66;56.46;95598.41;5056269;28;20607;-82
2023/09/11 07:15:38;;;;;;;8.32;7.20;;;;;;;23.77;55.42;95596.84;5050481;28;20187;-83
2023/09/11 07:18:04;;;;;;;8.77;7.53;;;;;;;23.92;54.98;95597.16;5049816;28;20876;-83
2023/09/11 07:20:29;;;;;;;11.07;7.60;;;;;;;24.01;54.59;95598.44;5043595;28;20195;-83
2023/09/11 07:22:55;;;;;;;8.07;7.32;;;;;;;24.09;53.68;95597.28;5061769;28;20215;-84
2023/09/11 07:25:22;;;;;;;12.23;7.72;;;;;;;24.18;53.08;95598.56;5052663;28;20655;-84
2023/09/11 07:27:48;;;;;;;10.98;7.20;;;;;;;24.30;52.88;95607.34;5050105;28;20577;-84
2023/09/11 07:30:14;;;;;;;14.32;7.60;;;;;;;24.42;51.73;95596.75;5062808;28;20181;-83
2023/09/11 07:32:41;;;;;;;7.70;6.90;;;;;;;24.51;51.52;95597.19;5040022;28;20205;-84
2023/09/11 07:35:07;;;;;;;8.05;7.25;;;;;;;24.53;51.54;95600.41;5056338;28;20184;-83
2023/09/11 07:37:33;;;;;;;8.88;6.95;;;;;;;24.56;52.18;95605.28;5059099;28;20749;-84
2023/09/11 07:39:58;;;;;;;8.90;6.63;;;;;;;24.58;51.60;95605.84;5068512;28;20204;-83
2023/09/11 07:42:24;;;;;;;11.07;7.50;;;;;;;24.70;51.48;95605.81;5047624;28;20719;-84
2023/09/11 07:44:49;;;;;;;15.25;7.55;;;;;;;24.72;51.25;95609.03;5056801;28;20192;-83
2023/09/11 07:47:14;;;;;;;8.63;6.85;;;;;;;24.70;50.57;95608.47;5065995;28;20257;-84
2023/09/11 07:49:39;;;;;;;8.50;7.53;;;;;;;24.69;50.80;95604.19;5051652;28;20205;-84
2023/09/11 07:52:05;;;;;;;10.88;7.20;;;;;;;24.64;51.32;95612.03;5054824;28;20616;-84
2023/09/11 07:54:31;;;;;;;8.30;7.47;;;;;;;24.71;51.28;95607.41;5058641;28;20181;-84
2023/09/11 07:56:56;;;;;;;9.90;6.72;;;;;;;24.76;51.61;95615.50;5063409;28;20226;-84
2023/09/11 07:59:22;;;;;;;9.98;6.55;;;;;;;24.85;50.80;95617.56;5052214;28;20557;-84
2023/09/11 08:01:47;;;;;;;8.00;7.20;;;;;;;24.70;50.80;95619.88;5064926;28;20185;-85
2023/09/11 08:04:12;;;;;;;8.63;6.88;;;;;;;24.77;51.07;95623.22;5054985;28;20191;-85
2023/09/11 08:06:38;;;;;;;8.52;7.20;;;;;;;24.90;50.98;95622.16;5054163;28;20183;-84
2023/09/11 08:09:03;;;;;;;8.43;7.10;;;;;;;24.89;50.36;95623.19;5050671;28;20200;-84
2023/09/11 08:11:30;;;;;;;9.32;7.25;;;;;;;24.85;50.62;95619.41;5049306;28;20195;-84
2023/09/11 08:13:55;;;;;;;7.20;6.60;;;;;;;24.92;50.96;95624.59;5057372;28;20291;-84
2023/09/11 08:16:20;;;;;;;8.60;6.78;;;;;;;24.98;50.93;95623.63;5055015;28;20249;-84
2023/09/11 08:18:46;;;;;;;9.52;6.85;;;;;;;25.04;50.19;95628.84;5072948;28;20185;-84
2023/09/11 08:21:12;;;;;;;8.20;7.13;;;;;;;25.19;50.15;95627.53;5069931;28;20715;-84
2023/09/11 08:23:37;;;;;;;9.35;7.35;;;;;;;25.37;50.40;95628.16;5046782;28;20346;-84
2023/09/11 08:26:03;;;;;;;12.30;7.05;;;;;;;25.27;51.91;95629.81;5051279;28;20200;-84
2023/09/11 08:28:28;;;;;;;9.68;7.18;;;;;;;25.36;51.07;95625.72;5051587;28;20555;-84
2023/09/11 08:30:56;;;;;;;9.68;6.97;;;;;;;25.51;51.47;95625.97;5085813;28;20177;-84
2023/09/11 08:33:22;;;;;;;10.35;7.35;;;;;;;25.49;49.72;95625.44;5069358;23;20312;-81
2023/09/11 08:35:48;;;;;;;9.80;7.65;;;;;;;25.53;50.62;95621.25;5019131;28;20731;-80
2023/09/11 08:38:15;;;;;;;8.68;7.25;;;;;;;25.39;51.27;95630.56;5061622;28;20175;-81
2023/09/11 08:40:42;;;;;;;8.43;7.45;;;;;;;25.53;50.38;95623.91;5047525;28;20185;-81
2023/09/11 08:43:07;;;;;;;8.32;7.53;;;;;;;25.41;51.40;95623.16;5045015;28;20205;-80
2023/09/11 08:45:33;;;;;;;9.70;6.78;;;;;;;25.58;50.21;95629.31;5063634;28;20188;-80
2023/09/11 08:47:58;;;;;;;8.40;7.05;;;;;;;25.50;50.75;95624.38;5037707;28;20654;-81
2023/09/11 08:50:33;;;;;;;10.63;7.53;;;;;;;25.54;51.52;95620.22;5051636;28;20229;-81
2023/09/11 08:52:59;;;;;;;9.55;7.50;;;;;;;25.58;51.14;95618.66;5044081;28;20711;-81
2023/09/11 08:55:25;;;;;;;8.23;7.18;;;;;;;25.66;51.49;95626.25;5021914;28;20185;-81
2023/09/11 08:57:51;;;;;;;9.02;7.43;;;;;;;25.76;51.45;95625.66;5036477;28;20185;-81
2023/09/11 09:00:17;;;;;;;10.25;6.82;;;;;;;25.62;50.72;95619.81;5041070;28;20257;-81
2023/09/11 09:02:43;;;;;;;9.77;7.18;;;;;;;25.85;50.84;95620.75;5047163;28;20293;-81
2023/09/11 09:05:09;;;;;;;8.68;6.60;;;;;;;26.07;49.59;95620.84;5046357;28;20232;-81
2023/09/11 09:07:35;;;;;;;10.18;6.95;;;;;;;26.00;48.99;95622.84;5032776;28;20562;-82
2023/09/11 09:10:02;;;;;;;8.35;7.55;;;;;;;26.02;49.00;95628.72;5057815;28;20302;-81
2023/09/11 09:12:28;;;;;;;10.20;7.15;;;;;;;26.18;49.39;95627.91;5037790;28;20698;-81
2023/09/11 09:14:54;;;;;;;7.90;6.68;;;;;;;26.22;49.11;95626.38;5031061;28;20200;-81
2023/09/11 09:17:19;;;;;;;9.10;7.10;;;;;;;26.44;47.55;95629.13;5049179;28;20189;-81
2023/09/11 09:19:44;;;;;;;9.00;6.82;;;;;;;26.16;48.12;95633.50;5036420;28;20193;-83
2023/09/11 09:22:12;;;;;;;8.07;7.00;;;;;;;26.19;48.08;95625.00;5046681;28;20194;-83
2023/09/11 09:24:47;;;;;;;14.38;7.72;;;;;;;26.30;47.77;95627.81;5032480;28;20686;-83
2023/09/11 09:27:12;;;;;;;11.57;6.53;;;;;;;26.30;47.02;95627.81;5049962;28;20248;-83
2023/09/11 09:29:40;;;;;;;9.48;6.70;;;;;;;26.60;46.15;95625.63;5039689;28;20225;-87
2023/09/11 09:32:07;;;;;;;9.82;7.07;;;;;;;26.65;46.72;95625.69;5031793;28;20233;-86
2023/09/11 09:34:34;;;;;;;9.75;6.68;;;;;;;26.70;46.11;95623.09;5048604;28;20195;-86
2023/09/11 09:37:00;;;;;;;9.88;7.40;;;;;;;26.83;45.84;95628.03;5039604;28;20258;-86
2023/09/11 09:39:28;;;;;;;10.02;7.57;;;;;;;26.61;46.15;95626.44;5026959;28;20331;-85
2023/09/11 09:41:58;;;;;;;9.48;7.35;;;;;;;26.43;46.53;95623.00;5022384;28;20195;-85
2023/09/11 09:44:35;;;;;;;10.20;7.75;;;;;;;26.81;46.03;95626.69;5029220;28;20185;-85
2023/09/11 09:47:15;;;;;;;9.65;7.18;;;;;;;26.83;44.91;95624.56;5024308;28;20245;-85
2023/09/11 09:50:00;;;;;;;9.85;7.45;;;;;;;26.85;44.71;95622.47;5035578;28;20247;-83
2023/09/11 09:52:27;;;;;;;7.82;6.95;;;;;;;26.76;45.62;95614.09;5041781;28;20221;-86
2023/09/11 09:54:59;;;;;;;9.20;7.80;;;;;;;26.83;44.83;95609.38;5025189;28;20195;-86
2023/09/11 09:57:26;;;;;;;7.75;6.60;;;;;;;26.93;45.27;95613.22;5034957;28;20184;-86
2023/09/11 09:59:53;;;;;;;11.23;7.03;;;;;;;27.17;44.56;95603.94;5035879;28;20201;-86
2023/09/11 10:02:29;;;;;;;8.90;6.95;;;;;;;26.82;45.39;95602.44;5041805;28;20288;-87
2023/09/11 10:04:55;;;;;;;7.97;7.30;;;;;;;27.20;45.02;95600.78;5045798;28;20195;-86
2023/09/11 10:07:42;;;;;;;9.38;8.38;;;;;;;27.10;44.73;95598.81;5037515;28;20181;-87
2023/09/11 10:10:25;;;;;;;9.57;7.20;;;;;;;26.86;45.46;95601.94;5047310;28;20323;-87
2023/09/11 10:13:12;;;;;;;9.18;7.22;;;;;;;26.95;46.11;95600.50;5033026;28;20194;-86
2023/09/11 10:15:40;;;;;;;12.32;7.15;;;;;;;27.44;43.81;95589.81;5038786;28;20185;-87
2023/09/11 10:18:06;;;;;;;11.95;7.30;;;;;;;27.58;43.97;95596.38;5027259;28;20191;-87
2023/09/11 10:20:32;;;;;;;9.70;7.88;;;;;;;27.54;44.14;95593.38;5036714;28;20224;-85
2023/09/11 12:29:34;;;;;;;;;;;;;;;;;;;;;
2023/09/11 13:08:54;;;;;;;10.57;5.72;;;;;;;30.10;34.58;95500.59;5699554;22;20252;-82
2023/09/11 13:11:19;;;;;;;11.65;5.90;;;;;;;30.21;34.16;95508.59;4996654;28;20735;-80
2023/09/11 13:13:44;;;;;;;15.30;6.60;;;;;;;30.20;35.69;95501.63;5023511;28;20232;-84
2023/09/11 13:16:10;;;;;;;11.43;5.78;;;;;;;30.29;35.30;95500.00;5030768;28;20545;-85
2023/09/11 13:18:35;;;;;;;11.07;5.97;;;;;;;30.53;33.78;95497.50;5034570;28;20303;-85
2023/09/11 13:21:01;;;;;;;10.05;5.85;;;;;;;30.55;34.09;95490.78;5021263;28;20217;-86
2023/09/11 13:23:26;;;;;;;8.20;6.03;;;;;;;30.84;33.86;95484.81;5036167;28;20233;-85
2023/09/11 13:25:52;;;;;;;11.68;5.93;;;;;;;31.04;33.67;95487.34;5008574;28;20554;-84
2023/09/11 13:28:17;;;;;;;9.20;5.95;;;;;;;30.81;33.51;95485.34;5017506;28;20202;-85
2023/09/11 13:30:42;;;;;;;10.38;5.30;;;;;;;31.08;33.24;95487.59;5013272;28;20198;-85
2023/09/11 13:33:07;;;;;;;10.65;5.95;;;;;;;30.50;34.78;95496.19;5029417;28;20225;-86
2023/09/11 13:35:33;;;;;;;11.10;6.35;;;;;;;30.66;34.73;95484.34;5006932;28;20178;-86
2023/09/11 13:37:58;;;;;;;12.85;6.85;;;;;;;30.79;33.45;95480.25;5019347;28;20194;-85
2023/09/11 13:40:24;;;;;;;8.93;5.38;;;;;;;30.86;32.80;95482.63;5012825;28;20179;-86
2023/09/11 13:42:49;;;;;;;10.63;6.40;;;;;;;30.78;33.69;95483.22;5012982;28;20200;-85
2023/09/11 13:45:15;;;;;;;11.13;6.32;;;;;;;30.94;33.15;95482.06;5026728;28;20206;-84
2023/09/11 13:47:40;;;;;;;13.70;6.55;;;;;;;30.77;34.51;95486.97;5013482;28;20189;-85
2023/09/11 13:50:06;;;;;;;12.35;6.07;;;;;;;30.52;35.00;95490.56;5028875;28;20203;-84
2023/09/11 13:52:31;;;;;;;7.90;6.35;;;;;;;30.56;34.83;95488.91;5017801;28;20221;-85
2023/09/11 13:54:57;;;;;;;8.45;5.72;;;;;;;30.81;35.19;95479.97;5013350;28;20182;-85
2023/09/11 13:57:22;;;;;;;9.00;5.90;;;;;;;30.42;34.66;95488.72;5022167;28;20182;-84
2023/09/11 13:59:47;;;;;;;8.40;5.97;;;;;;;30.48;35.14;95482.28;5012886;28;20183;-84
2023/09/11 14:02:12;;;;;;;12.70;5.78;;;;;;;30.60;34.26;95471.22;5021757;28;20214;-85
2023/09/11 14:04:38;;;;;;;9.00;6.35;;;;;;;30.79;34.42;95471.41;5014898;28;20186;-85
2023/09/11 14:07:04;;;;;;;12.57;5.97;;;;;;;30.50;34.49;95476.63;5019982;28;20770;-84
2023/09/11 14:09:29;;;;;;;7.25;5.85;;;;;;;30.75;34.52;95470.38;5016677;28;20242;-85
2023/09/11 14:11:54;;;;;;;10.65;5.88;;;;;;;30.57;33.78;95467.22;5024477;28;20191;-87
2023/09/11 14:14:20;;;;;;;7.25;5.95;;;;;;;30.55;33.92;95473.91;5025761;28;20570;-86